Time;durP1;ratioP1;P1;durP2;ratioP2;P2;SDS_P1;SDS_P2;PMS_P1;PMS_P2;Temp;Humidity;BMP_temperature;BMP_pressure;BME280_temperature;BME280_humidity;BME280_pressure;Samples;Min_cycle;Max_cycle;Signal;HPM_P1;HPM_P2
2022/06/12 00:00:06;;;;;;;9.70;6.20;;;;;;;17.90;100.00;99518.91;5070818;28;20138;-30
2022/06/12 00:02:32;;;;;;;10.68;6.90;;;;;;;17.88;100.00;99521.91;5088772;28;20036;-32
2022/06/12 00:04:57;;;;;;;9.05;6.05;;;;;;;17.89;100.00;99525.41;5088804;28;20089;-30
2022/06/12 00:07:23;;;;;;;10.48;6.53;;;;;;;17.83;100.00;99511.94;5088827;28;20032;-29
2022/06/12 00:09:48;;;;;;;9.50;6.22;;;;;;;17.94;100.00;99517.25;5088973;28;20440;-29
2022/06/12 00:12:14;;;;;;;12.45;7.85;;;;;;;17.88;100.00;99516.50;5069294;28;20046;-29
2022/06/12 00:14:39;;;;;;;9.32;7.00;;;;;;;17.99;100.00;99519.94;5070289;28;20032;-31
2022/06/12 00:17:05;;;;;;;10.80;6.68;;;;;;;17.80;100.00;99504.38;5070397;28;20035;-29
2022/06/12 00:19:31;;;;;;;10.40;6.18;;;;;;;17.86;100.00;99513.28;5088742;28;20020;-30
2022/06/12 00:21:58;;;;;;;11.27;5.93;;;;;;;17.77;100.00;99496.03;5088607;28;20487;-30
2022/06/12 00:24:25;;;;;;;9.85;6.32;;;;;;;17.77;100.00;99514.91;5070326;28;20036;-30
2022/06/12 00:26:54;;;;;;;8.88;6.57;;;;;;;17.70;100.00;99498.25;5088645;28;20040;-29
2022/06/12 00:29:26;;;;;;;9.60;6.95;;;;;;;17.81;100.00;99505.19;5070241;28;20474;-32
2022/06/12 00:31:57;;;;;;;11.93;7.82;;;;;;;17.80;100.00;99508.97;5069953;28;20032;-35
2022/06/12 00:34:26;;;;;;;11.13;7.20;;;;;;;17.78;100.00;99497.66;5088403;28;20067;-38
2022/06/12 00:36:53;;;;;;;10.27;7.28;;;;;;;17.84;100.00;99515.47;5070118;28;20028;-30
2022/06/12 00:39:19;;;;;;;11.40;9.48;;;;;;;17.80;100.00;99519.78;5070515;28;20612;-30
2022/06/12 00:41:47;;;;;;;14.70;8.00;;;;;;;17.79;100.00;99526.22;5070387;28;20032;-29
2022/06/12 00:44:14;;;;;;;;;;;;;;;17.84;100.00;99504.66;5070461;28;20036;-33
2022/06/12 00:46:49;;;;;;;11.73;7.88;;;;;;;17.84;100.00;99515.47;5069790;28;19923;-29
2022/06/12 00:49:31;;;;;;;10.93;7.82;;;;;;;17.96;100.00;99513.22;5069598;28;20036;-30
2022/06/12 00:52:11;;;;;;;10.77;6.88;;;;;;;17.95;100.00;99516.19;5069917;28;20673;-30
2022/06/12 00:54:40;;;;;;;9.63;7.25;;;;;;;17.88;100.00;99516.50;5069650;28;20865;-35
2022/06/12 00:57:07;;;;;;;11.60;7.25;;;;;;;17.88;100.00;99511.13;5087900;28;20454;-29
2022/06/12 00:59:37;;;;;;;11.48;7.53;;;;;;;17.90;100.00;99514.34;5087957;28;20034;-34
2022/06/12 01:02:07;;;;;;;12.00;7.65;;;;;;;17.82;100.00;99496.03;5069857;28;20036;-31
2022/06/12 01:07:22;;;;;;;12.05;7.95;;;;;;;17.83;100.00;99492.25;5088048;28;20457;-30
2022/06/12 01:09:51;;;;;;;11.55;7.47;;;;;;;17.92;100.00;99512.16;5069760;28;20046;-33
2022/06/12 01:12:22;;;;;;;11.82;7.32;;;;;;;17.88;100.00;99513.81;5069232;28;20107;-30
2022/06/12 01:14:53;;;;;;;10.93;6.75;;;;;;;17.83;100.00;99494.94;5069728;28;20024;-35
2022/06/12 01:17:21;;;;;;;14.70;7.57;;;;;;;17.93;100.00;99505.66;5069425;28;20032;-32
2022/06/12 01:19:53;;;;;;;;;;;;;;;17.97;100.00;99503.22;5069820;28;20035;-29
2022/06/12 01:22:43;;;;;;;10.63;6.40;;;;;;;17.95;100.00;99513.47;5087102;28;19912;-29
2022/06/12 01:25:19;;;;;;;10.48;6.75;;;;;;;17.87;100.00;99499.50;5087844;28;20032;-30
2022/06/12 01:28:03;;;;;;;9.25;6.25;;;;;;;17.91;100.00;99509.75;5069395;28;20573;-29
2022/06/12 01:31:01;;;;;;;10.20;7.15;;;;;;;17.87;100.00;99506.78;5087274;28;20699;-31
2022/06/12 01:33:39;;;;;;;11.45;7.13;;;;;;;17.71;100.00;99502.56;5041870;28;20043;-30
2022/06/12 01:36:38;;;;;;;12.52;6.95;;;;;;;17.67;100.00;99499.59;5069147;28;20555;-29
2022/06/12 01:39:29;;;;;;;10.88;6.65;;;;;;;17.63;100.00;99510.16;5014441;28;20062;-34
2022/06/12 01:41:54;;;;;;;10.27;6.85;;;;;;;17.74;100.00;99512.78;5087249;28;20047;-30
2022/06/12 01:44:43;;;;;;;11.00;6.93;;;;;;;17.72;100.00;99517.66;5086875;28;20377;-33
2022/06/12 01:47:23;;;;;;;12.85;7.18;;;;;;;17.63;100.00;99510.16;5047291;28;20139;-30
2022/06/12 01:50:07;;;;;;;10.48;7.50;;;;;;;17.64;100.00;99511.75;5068728;28;20857;-31
2022/06/12 01:53:11;;;;;;;10.80;7.20;;;;;;;17.76;100.00;99518.72;5086931;28;20067;-35
2022/06/12 01:55:46;;;;;;;9.27;6.55;;;;;;;17.63;100.00;99506.63;5083035;28;20044;-29
2022/06/12 01:58:21;;;;;;;10.35;6.80;;;;;;;17.58;100.00;99495.91;5087312;28;20116;-29
2022/06/12 02:00:56;;;;;;;12.23;6.43;;;;;;;17.66;100.00;99504.19;5069106;28;20086;-30
2022/06/12 02:03:24;;;;;;;11.38;6.50;;;;;;;17.61;100.00;99498.84;5068956;28;20510;-30
2022/06/12 02:06:01;;;;;;;10.07;6.63;;;;;;;17.63;100.00;99499.38;5086948;28;20032;-33
2022/06/12 02:08:35;;;;;;;9.40;6.47;;;;;;;17.60;100.00;99489.13;5086758;28;20031;-30
2022/06/12 02:14:04;;;;;;;9.88;6.22;;;;;;;17.63;100.00;99499.38;5087335;28;20051;-34
2022/06/12 02:16:37;;;;;;;12.77;6.55;;;;;;;17.72;100.00;99501.47;5068443;28;20039;-35
2022/06/12 02:19:18;;;;;;;9.48;6.07;;;;;;;17.74;100.00;99493.91;5068838;28;20479;-35
2022/06/12 02:21:53;;;;;;;8.85;6.22;;;;;;;17.66;100.00;99495.31;5068746;28;20028;-30
2022/06/12 02:24:28;;;;;;;10.70;5.88;;;;;;;17.62;100.00;99492.38;5068529;28;20036;-29
2022/06/12 02:27:06;;;;;;;10.50;6.40;;;;;;;17.64;100.00;99486.69;5068295;28;20063;-33
2022/06/12 02:29:38;;;;;;;9.88;6.18;;;;;;;17.54;100.00;99468.69;5068883;28;20118;-30
2022/06/12 02:32:14;;;;;;;9.02;6.10;;;;;;;17.56;100.00;99493.47;5086664;28;20043;-36
2022/06/12 02:34:43;;;;;;;11.88;7.60;;;;;;;17.46;100.00;99475.47;5069365;28;20075;-29
2022/06/12 02:37:22;;;;;;;11.98;6.00;;;;;;;17.59;100.00;99484.03;5072286;28;20499;-29
2022/06/12 02:39:52;;;;;;;8.70;6.53;;;;;;;17.54;100.00;99484.88;5090709;28;20042;-32
2022/06/12 02:42:23;;;;;;;11.32;6.63;;;;;;;17.60;100.00;99483.75;5072379;28;20085;-30
2022/06/12 02:44:52;;;;;;;9.40;6.28;;;;;;;17.49;100.00;99482.22;5072235;28;20051;-34
2022/06/12 02:47:25;;;;;;;10.00;6.90;;;;;;;17.57;100.00;99488.88;5090598;28;20116;-29
2022/06/12 02:49:54;;;;;;;10.77;7.10;;;;;;;17.60;100.00;99494.53;5071990;28;20069;-30
2022/06/12 02:52:20;;;;;;;9.18;6.53;;;;;;;17.74;100.00;99491.22;5071884;28;20028;-33
2022/06/12 02:55:00;;;;;;;9.80;7.05;;;;;;;17.66;100.00;99496.09;5072175;28;20414;-38
2022/06/12 02:57:51;;;;;;;9.93;6.45;;;;;;;17.78;100.00;99494.97;5072035;28;20052;-30
2022/06/12 03:00:26;;;;;;;11.82;7.25;;;;;;;17.64;100.00;99497.47;5071715;28;20118;-42
2022/06/12 03:03:16;;;;;;;11.93;8.07;;;;;;;17.68;100.00;99493.94;5071931;28;20104;-30
2022/06/12 03:05:46;;;;;;;9.85;6.57;;;;;;;17.59;100.00;99484.84;5090098;28;20115;-32
2022/06/12 03:08:16;;;;;;;9.73;6.95;;;;;;;17.79;100.00;99499.25;5071830;28;20905;-29
2022/06/12 03:11:25;;;;;;;11.65;7.03;;;;;;;17.71;100.00;99497.97;5071572;28;20495;-30
2022/06/12 03:13:52;;;;;;;10.82;7.38;;;;;;;17.71;100.00;99507.94;5090034;28;20636;-33
2022/06/12 03:16:25;;;;;;;11.88;6.57;;;;;;;17.74;100.00;99510.09;5071408;28;20073;-29
2022/06/12 03:19:18;;;;;;;14.18;6.63;;;;;;;17.64;100.00;99495.59;5089909;28;20039;-33
2022/06/12 03:21:50;;;;;;;9.63;6.55;;;;;;;17.59;100.00;99509.13;5071770;28;20118;-32
2022/06/12 03:24:34;;;;;;;10.20;7.13;;;;;;;17.64;100.00;99500.19;5071530;28;20403;-30
2022/06/12 03:27:25;;;;;;;10.48;6.70;;;;;;;17.67;100.00;99527.41;5071587;28;20067;-30
2022/06/12 03:30:19;;;;;;;10.63;7.00;;;;;;;17.75;100.00;99517.09;5089997;28;20392;-29
2022/06/12 03:33:01;;;;;;;13.32;7.03;;;;;;;17.61;100.00;99523.13;5081397;28;20521;-30
2022/06/12 03:35:26;;;;;;;12.82;7.43;;;;;;;17.63;100.00;99520.13;5071265;28;20030;-34
2022/06/12 03:38:33;;;;;;;11.63;7.10;;;;;;;17.80;100.00;99530.56;5089345;28;20032;-35
2022/06/12 03:41:24;;;;;;;12.18;7.32;;;;;;;17.69;100.00;99508.22;4987295;28;20474;-33
2022/06/12 03:44:21;;;;;;;12.75;7.88;;;;;;;17.83;100.00;99525.41;4977230;28;20042;-32
2022/06/12 03:47:02;;;;;;;11.30;6.95;;;;;;;17.87;100.00;99533.75;5073006;28;20032;-34
2022/06/12 03:49:36;;;;;;;11.07;8.00;;;;;;;17.91;100.00;99542.09;5071161;28;20411;-31
2022/06/12 03:52:19;;;;;;;11.43;8.38;;;;;;;17.86;100.00;99524.06;5089354;28;20024;-34
2022/06/12 03:55:03;;;;;;;11.15;8.23;;;;;;;17.89;100.00;99538.88;5070738;28;20024;-30
2022/06/12 03:57:53;;;;;;;11.07;7.32;;;;;;;17.82;100.00;99528.38;5089043;28;20028;-30
2022/06/12 04:00:34;;;;;;;11.85;7.57;;;;;;;17.74;100.00;99515.50;5070692;28;20043;-29
2022/06/12 04:03:03;;;;;;;11.13;7.93;;;;;;;17.64;100.00;99511.75;5070815;28;20036;-29
2022/06/12 04:05:44;;;;;;;9.93;6.85;;;;;;;17.75;100.00;99519.78;5070911;28;20060;-30
2022/06/12 04:08:16;;;;;;;9.68;6.57;;;;;;;17.78;100.00;99528.13;5071083;28;20117;-30
2022/06/12 04:10:42;;;;;;;9.15;6.47;;;;;;;17.75;100.00;99528.69;5070642;28;20028;-30
2022/06/12 04:13:13;;;;;;;10.23;6.72;;;;;;;17.83;100.00;99527.31;5089107;28;20035;-32
2022/06/12 04:16:12;;;;;;;10.43;7.10;;;;;;;17.74;100.00;99527.09;5070316;28;20067;-29
2022/06/12 04:18:37;;;;;;;10.25;6.88;;;;;;;17.74;100.00;99520.88;5088651;28;20023;-32
2022/06/12 04:21:10;;;;;;;10.70;6.85;;;;;;;17.85;100.00;99554.81;5088869;28;20024;-34
2022/06/12 04:24:03;;;;;;;9.35;6.97;;;;;;;18.07;100.00;99552.50;5070443;28;20024;-30
2022/06/12 04:26:35;;;;;;;10.75;7.00;;;;;;;18.09;100.00;99548.72;5070220;28;20484;-30
2022/06/12 04:29:12;;;;;;;10.65;6.47;;;;;;;17.96;100.00;99539.34;5089195;28;20028;-30
2022/06/12 04:31:41;;;;;;;9.75;6.72;;;;;;;18.00;100.00;99535.84;5088364;28;20717;-32
2022/06/12 04:34:20;;;;;;;11.45;7.00;;;;;;;18.03;100.00;99545.25;5088271;28;20048;-34
2022/06/12 04:36:51;;;;;;;10.23;7.47;;;;;;;18.08;100.00;99558.69;5070274;28;20115;-34
2022/06/12 04:39:20;;;;;;;11.10;7.15;;;;;;;18.29;100.00;99559.38;5070453;28;20031;-36
2022/06/12 04:41:46;;;;;;;8.13;6.18;;;;;;;18.16;100.00;99568.09;5070315;28;20036;-29
2022/06/12 04:44:12;;;;;;;11.20;6.97;;;;;;;18.24;100.00;99564.78;5088545;28;20032;-30
2022/06/12 04:46:40;;;;;;;11.52;6.82;;;;;;;18.24;100.00;99557.50;5069516;28;20051;-31
2022/06/12 04:49:06;;;;;;;10.05;7.03;;;;;;;18.32;100.00;99561.50;5088569;28;20040;-29
2022/06/12 04:51:32;;;;;;;9.55;6.95;;;;;;;18.34;100.00;99558.50;5088198;28;20773;-31
2022/06/12 04:53:58;;;;;;;8.82;6.43;;;;;;;18.30;100.00;99566.38;5069986;28;20221;-38
2022/06/12 04:56:28;;;;;;;11.35;6.25;;;;;;;18.34;100.00;99563.91;5087930;28;20063;-29
2022/06/12 04:58:54;;;;;;;9.65;6.78;;;;;;;18.32;100.00;99585.78;5069584;28;20036;-34
2022/06/12 05:01:22;;;;;;;10.00;6.85;;;;;;;18.20;100.00;99582.63;5069501;28;20024;-32
2022/06/12 05:03:48;;;;;;;10.82;6.72;;;;;;;18.21;100.00;99568.88;5069800;28;20024;-30
2022/06/12 05:06:15;;;;;;;11.98;7.30;;;;;;;18.38;100.00;99584.66;5069689;28;20039;-39
2022/06/12 05:08:41;;;;;;;9.93;7.40;;;;;;;18.51;100.00;99587.78;5088050;28;20036;-34
2022/06/12 05:11:07;;;;;;;10.13;7.28;;;;;;;18.77;100.00;99589.19;5088005;28;20024;-31
2022/06/12 05:13:33;;;;;;;10.05;7.25;;;;;;;18.80;100.00;99585.94;5069604;28;20039;-33
2022/06/12 05:15:59;;;;;;;10.15;7.30;;;;;;;18.74;100.00;99573.56;5069451;28;20036;-32
2022/06/12 05:18:26;;;;;;;10.55;8.07;;;;;;;18.76;100.00;99584.88;5087757;28;20173;-29
2022/06/12 05:20:51;;;;;;;8.60;6.80;;;;;;;18.48;100.00;99568.38;5069779;28;20043;-31
2022/06/12 05:23:18;;;;;;;11.15;8.10;;;;;;;18.51;100.00;99571.59;5087843;28;20481;-36
2022/06/12 05:25:44;;;;;;;10.05;7.80;;;;;;;18.45;100.00;99577.06;5069676;28;20035;-34
2022/06/12 05:28:13;;;;;;;10.15;7.55;;;;;;;18.40;100.00;99576.28;5069563;28;20398;-31
2022/06/12 05:30:38;;;;;;;10.00;6.30;;;;;;;18.41;100.00;99573.31;5087271;28;20028;-31
2022/06/12 05:33:04;;;;;;;10.00;7.38;;;;;;;18.53;100.00;99585.63;5087350;28;20066;-36
2022/06/12 05:35:31;;;;;;;10.68;7.97;;;;;;;18.45;100.00;99577.06;5069447;28;20066;-31
2022/06/12 05:37:58;;;;;;;9.05;7.05;;;;;;;18.27;100.00;99565.03;5087659;28;20032;-29
2022/06/12 05:40:27;;;;;;;10.13;7.63;;;;;;;18.40;100.00;99582.47;5087214;28;20032;-29
2022/06/12 05:42:52;;;;;;;72.43;12.95;;;;;;;18.37;100.00;99577.66;5068460;28;20043;-30
2022/06/12 05:45:21;;;;;;;10.02;7.50;;;;;;;18.30;100.00;99566.38;5087764;28;20407;-32
2022/06/12 05:47:54;;;;;;;10.52;8.30;;;;;;;18.42;100.00;99590.31;5087590;28;20080;-30
2022/06/12 05:50:23;;;;;;;9.20;7.18;;;;;;;18.53;100.00;99601.81;5068954;28;20035;-32
2022/06/12 06:01:28;;;;;;;11.37;8.20;;;;;;;17.71;100.00;99607.72;4850034;27;8320979;-32
2022/06/12 06:03:54;;;;;;;11.77;9.13;;;;;;;17.99;100.00;99598.16;5123122;28;20035;-33
2022/06/12 06:06:25;;;;;;;11.77;8.95;;;;;;;18.41;100.00;99611.09;5124679;27;20038;-31
2022/06/12 06:08:52;;;;;;;12.18;9.00;;;;;;;18.54;100.00;99608.84;5123493;28;20067;-34
2022/06/12 06:11:17;;;;;;;12.43;9.55;;;;;;;18.58;100.00;99612.59;5124432;27;20100;-33
2022/06/12 06:13:43;;;;;;;10.60;8.57;;;;;;;18.56;100.00;99601.25;5124370;27;20131;-29
2022/06/12 06:16:08;;;;;;;12.02;9.55;;;;;;;18.70;100.00;99621.13;5122855;28;20027;-37
2022/06/12 06:18:36;;;;;;;10.98;9.00;;;;;;;18.62;100.00;99611.72;5124395;27;20027;-34
2022/06/12 06:21:02;;;;;;;10.77;9.30;;;;;;;18.74;100.00;99619.47;5122563;28;20157;-32
2022/06/12 06:23:28;;;;;;;11.07;8.30;;;;;;;18.74;100.00;99618.69;5122978;28;20596;-33
2022/06/12 06:25:53;;;;;;;11.23;8.82;;;;;;;18.78;100.00;99625.91;5124251;27;20032;-32
2022/06/12 06:28:19;;;;;;;11.73;8.77;;;;;;;18.78;100.00;99623.22;5124153;28;20401;-35
2022/06/12 06:30:45;;;;;;;12.25;9.30;;;;;;;18.75;100.00;99626.47;5124117;27;20055;-29
2022/06/12 06:33:11;;;;;;;10.85;8.88;;;;;;;18.81;100.00;99619.97;5122103;28;20074;-30
2022/06/12 06:35:37;;;;;;;10.80;8.90;;;;;;;18.93;100.00;99627.69;5122705;28;20130;-29
2022/06/12 06:38:04;;;;;;;54.42;36.35;;;;;;;19.02;100.00;99628.69;5122651;28;20035;-37
2022/06/12 06:40:31;;;;;;;17.02;12.60;;;;;;;19.07;100.00;99623.22;5122721;28;20024;-35
2022/06/12 06:42:56;;;;;;;11.95;8.43;;;;;;;19.20;100.00;99637.94;5123775;27;20474;-32
2022/06/12 06:48:08;;;;;;;13.57;9.48;;;;;;;19.38;100.00;99632.91;5123592;28;20104;-30
2022/06/12 06:50:34;;;;;;;67.03;48.30;;;;;;;19.56;100.00;99640.28;5123757;27;20027;-30
2022/06/12 06:53:00;;;;;;;25.13;18.23;;;;;;;19.72;100.00;99632.00;5122173;28;20057;-33
2022/06/12 06:55:27;;;;;;;10.60;8.93;;;;;;;19.96;100.00;99649.00;5123471;27;20069;-29
2022/06/12 06:57:52;;;;;;;10.67;7.93;;;;;;;20.07;100.00;99647.75;5121771;28;20112;-32
2022/06/12 07:00:22;;;;;;;9.65;7.47;;;;;;;20.24;100.00;99632.91;5109932;28;20115;-31
2022/06/12 07:02:48;;;;;;;11.88;9.30;;;;;;;20.16;100.00;99637.06;5101379;28;20055;-33
2022/06/12 07:05:14;;;;;;;9.73;7.15;;;;;;;20.17;100.00;99640.59;5101023;28;20039;-30
2022/06/12 07:07:41;;;;;;;12.60;8.63;;;;;;;19.94;100.00;99618.72;5101522;28;20035;-34
2022/06/12 07:10:09;;;;;;;11.70;8.85;;;;;;;20.15;100.00;99626.56;5101201;28;20085;-30
2022/06/12 07:12:34;;;;;;;10.70;8.63;;;;;;;20.03;100.00;99622.38;5087112;28;20049;-29
2022/06/12 07:15:00;;;;;;;11.63;8.75;;;;;;;20.24;100.00;99622.06;5088516;28;20057;-42
2022/06/12 07:17:26;;;;;;;11.20;8.07;;;;;;;20.19;100.00;99635.69;5087786;28;20028;-30
2022/06/12 07:19:51;;;;;;;10.05;8.27;;;;;;;20.26;100.00;99641.53;5088959;28;20419;-33
2022/06/12 07:22:17;;;;;;;10.80;7.68;;;;;;;20.17;100.00;99611.63;5089224;28;20028;-33
2022/06/12 07:24:42;;;;;;;12.70;8.63;;;;;;;20.11;100.00;99636.34;5089356;28;20072;-30
2022/06/12 07:27:08;;;;;;;11.38;8.23;;;;;;;20.09;100.00;99625.00;5086809;28;20031;-30
2022/06/12 07:29:34;;;;;;;11.45;8.05;;;;;;;20.21;100.00;99631.59;5088164;28;20498;-30
2022/06/12 07:32:00;;;;;;;8.80;6.25;;;;;;;20.13;100.00;99639.56;5086884;28;20032;-32
2022/06/12 07:34:26;;;;;;;9.05;7.40;;;;;;;20.14;100.00;99647.38;5088490;28;20030;-32
2022/06/12 07:36:53;;;;;;;9.23;7.28;;;;;;;20.17;100.00;99648.72;5087331;28;20338;-33
2022/06/12 07:39:23;;;;;;;10.07;7.50;;;;;;;20.10;100.00;99661.81;5086624;28;20032;-33
2022/06/12 07:41:50;;;;;;;42.00;9.63;;;;;;;19.83;100.00;99639.69;5086848;28;20040;-32
2022/06/12 07:44:19;;;;;;;11.77;8.13;;;;;;;20.12;100.00;99654.19;5087006;28;20035;-31
2022/06/12 07:46:45;;;;;;;12.00;8.38;;;;;;;20.16;100.00;99647.09;5086996;28;20028;-30
2022/06/12 07:49:10;;;;;;;10.27;7.45;;;;;;;20.20;100.00;99659.75;5088355;28;20028;-33
2022/06/12 07:51:35;;;;;;;11.02;7.75;;;;;;;20.23;100.00;99655.66;5088534;28;20060;-35
2022/06/12 07:54:01;;;;;;;9.05;7.10;;;;;;;20.06;100.00;99643.44;5088232;28;20028;-32
2022/06/12 07:56:27;;;;;;;9.20;7.45;;;;;;;20.14;100.00;99646.59;5088308;28;20063;-30
2022/06/12 07:58:54;;;;;;;9.80;7.43;;;;;;;20.24;100.00;99659.97;5087914;28;20040;-29
2022/06/12 08:01:23;;;;;;;8.60;7.18;;;;;;;20.20;100.00;99665.16;5088997;28;20032;-32
2022/06/12 08:03:49;;;;;;;10.10;7.47;;;;;;;20.17;100.00;99662.25;5108590;28;20034;-33
2022/06/12 08:06:14;;;;;;;10.77;9.10;;;;;;;20.14;100.00;99644.69;5108491;28;20044;-31
2022/06/12 08:08:41;;;;;;;10.13;9.02;;;;;;;20.20;100.00;99658.94;5108486;28;20107;-33
2022/06/12 08:11:08;;;;;;;10.65;8.32;;;;;;;20.28;100.00;99674.53;5089595;28;20895;-34
2022/06/12 08:13:34;;;;;;;12.30;9.60;;;;;;;20.15;100.00;99667.97;5090135;28;20035;-31
2022/06/12 08:16:00;;;;;;;10.75;8.68;;;;;;;20.12;100.00;99683.97;5089822;28;20050;-30
2022/06/12 08:18:27;;;;;;;12.50;9.80;;;;;;;20.06;100.00;99683.22;5108255;28;20030;-30
2022/06/12 08:20:56;;;;;;;12.05;9.25;;;;;;;20.05;100.00;99679.72;5089309;28;20470;-31
2022/06/12 08:23:39;;;;;;;11.38;9.60;;;;;;;20.07;100.00;99677.53;5088405;28;20030;-34
2022/06/12 08:26:16;;;;;;;12.57;9.85;;;;;;;20.12;100.00;99678.56;5108598;28;20040;-37
2022/06/12 08:28:49;;;;;;;14.07;9.57;;;;;;;20.02;100.00;99677.63;5089437;28;20027;-36
2022/06/12 08:31:19;;;;;;;14.57;11.75;;;;;;;20.12;100.00;99673.13;5107747;28;20041;-30
2022/06/12 08:33:48;;;;;;;12.27;10.82;;;;;;;20.18;100.00;99674.69;5089502;28;20475;-30
2022/06/12 08:36:16;;;;;;;13.88;10.93;;;;;;;20.10;100.00;99669.91;5089401;28;20035;-31
2022/06/12 08:38:42;;;;;;;11.32;9.95;;;;;;;20.13;100.00;99674.75;5089515;28;20042;-32
2022/06/12 08:41:14;;;;;;;13.70;11.70;;;;;;;20.06;100.00;99654.28;5107523;28;20717;-31
2022/06/12 08:43:50;;;;;;;14.00;11.68;;;;;;;20.14;100.00;99673.66;5107993;28;20098;-30
2022/06/12 08:46:23;;;;;;;12.90;9.93;;;;;;;20.09;100.00;99665.63;5089220;28;20387;-31
2022/06/12 08:48:59;;;;;;;12.70;10.85;;;;;;;20.39;100.00;99675.19;5089314;28;20066;-34
2022/06/12 08:51:33;;;;;;;12.45;9.77;;;;;;;20.26;100.00;99676.72;5089060;28;20508;-30
2022/06/12 08:54:11;;;;;;;12.18;10.20;;;;;;;20.07;100.00;99666.69;5107638;28;20063;-31
2022/06/12 08:56:43;;;;;;;12.07;10.07;;;;;;;20.20;100.00;99664.38;5089027;28;20034;-31
2022/06/12 08:59:22;;;;;;;11.98;10.25;;;;;;;20.31;100.00;99676.66;5106919;28;20039;-33
2022/06/12 09:01:47;;;;;;;12.43;9.63;;;;;;;20.41;100.00;99678.41;5107257;28;20048;-31
2022/06/12 09:04:18;;;;;;;12.15;9.85;;;;;;;20.39;100.00;99683.31;5107392;28;20038;-34
2022/06/12 09:06:44;;;;;;;10.30;8.32;;;;;;;20.26;100.00;99682.16;5089041;28;20032;-35
2022/06/12 09:09:40;;;;;;;12.07;8.57;;;;;;;20.06;100.00;99685.94;5106966;28;20042;-33
2022/06/12 09:12:14;;;;;;;10.88;8.88;;;;;;;20.14;100.00;99688.00;5089211;28;20031;-33
2022/06/12 09:14:52;;;;;;;9.68;8.00;;;;;;;20.06;100.00;99689.47;5088521;28;20039;-29
2022/06/12 09:17:17;;;;;;;9.18;7.72;;;;;;;20.15;100.00;99694.22;5088485;28;20035;-33
2022/06/12 09:20:07;;;;;;;9.98;6.97;;;;;;;20.25;100.00;99689.47;5088410;28;20518;-36
2022/06/12 09:23:03;;;;;;;11.30;8.52;;;;;;;20.29;100.00;99676.16;5088864;28;20031;-37
2022/06/12 09:25:57;;;;;;;23.67;15.55;;;;;;;20.38;100.00;99670.88;5107697;28;20753;-30
2022/06/12 09:28:38;;;;;;;7.95;6.63;;;;;;;20.56;100.00;99675.47;5064689;28;20051;-31
2022/06/12 09:31:22;;;;;;;10.55;8.18;;;;;;;20.60;100.00;99670.31;5088382;28;20024;-33
2022/06/12 09:33:55;;;;;;;8.50;6.32;;;;;;;20.75;100.00;99680.88;5088646;28;20031;-35
2022/06/12 09:36:39;;;;;;;9.52;6.75;;;;;;;21.02;100.00;99674.75;5088899;28;20032;-30
2022/06/12 09:39:21;;;;;;;10.07;6.90;;;;;;;21.03;100.00;99662.81;5106796;28;20647;-29
2022/06/12 09:42:12;;;;;;;9.02;6.32;;;;;;;21.02;99.84;99685.59;5088852;28;20072;-29
2022/06/12 09:44:48;;;;;;;7.45;5.90;;;;;;;21.01;99.08;99685.91;5088691;28;20020;-29
2022/06/12 09:47:25;;;;;;;8.68;6.18;;;;;;;21.07;98.76;99682.78;5088493;28;20063;-31
2022/06/12 09:50:12;;;;;;;46.85;7.75;;;;;;;21.13;97.08;99691.66;5088648;28;20071;-31
2022/06/12 09:52:56;;;;;;;6.32;4.65;;;;;;;21.34;98.83;99685.84;5088366;28;20407;-30
2022/06/12 09:55:33;;;;;;;8.20;6.40;;;;;;;21.43;96.22;99689.50;5087855;28;20069;-29
2022/06/12 09:58:13;;;;;;;15.68;12.55;;;;;;;21.36;98.71;99691.78;5107165;28;20039;-39
2022/06/12 10:00:42;;;;;;;7.07;5.53;;;;;;;21.69;94.79;99686.28;5106690;28;20130;-37
2022/06/12 10:03:16;;;;;;;7.57;4.97;;;;;;;21.75;93.72;99695.94;5087710;28;20055;-32
2022/06/12 10:05:54;;;;;;;42.35;7.50;;;;;;;21.48;92.27;99662.28;5088084;28;20629;-31
2022/06/12 10:08:25;;;;;;;10.88;7.68;;;;;;;21.32;92.61;99669.88;5088511;28;20042;-34
2022/06/12 10:11:08;;;;;;;7.90;5.30;;;;;;;21.34;93.62;99680.44;5106753;28;20035;-31
2022/06/12 10:13:53;;;;;;;9.98;5.85;;;;;;;21.45;93.07;99679.97;5088075;28;20527;-39
2022/06/12 10:16:23;;;;;;;8.48;4.75;;;;;;;21.27;91.31;99668.06;5088098;28;20031;-31
2022/06/12 10:18:56;;;;;;;9.27;4.90;;;;;;;21.14;94.04;99674.25;5088185;28;20074;-30
2022/06/12 10:21:24;;;;;;;6.38;4.50;;;;;;;21.10;94.00;99669.75;5106830;28;20031;-33
2022/06/12 10:23:51;;;;;;;15.45;11.23;;;;;;;21.10;97.08;99678.66;5087789;28;20035;-32
2022/06/12 10:26:25;;;;;;;47.67;13.55;;;;;;;21.02;94.97;99679.34;5106323;28;20085;-33
2022/06/12 10:29:14;;;;;;;21.00;13.75;;;;;;;21.09;98.32;99674.38;5106299;28;20026;-29
2022/06/12 10:31:55;;;;;;;20.40;14.73;;;;;;;21.05;99.67;99666.00;5106371;28;20160;-33
2022/06/12 10:34:28;;;;;;;13.32;8.80;;;;;;;21.01;97.17;99675.06;5106363;28;20738;-29
2022/06/12 10:36:58;;;;;;;13.48;10.23;;;;;;;20.99;99.63;99666.41;5087989;28;20036;-32
2022/06/12 10:39:26;;;;;;;17.90;13.18;;;;;;;21.00;100.00;99659.88;5087857;28;20522;-30
2022/06/12 10:41:56;;;;;;;49.90;10.68;;;;;;;21.15;99.84;99673.16;5087985;28;20023;-31
2022/06/12 10:44:27;;;;;;;14.23;9.70;;;;;;;20.97;98.24;99669.41;5088105;28;20027;-32
2022/06/12 10:46:53;;;;;;;13.57;9.40;;;;;;;20.98;100.00;99675.63;5108280;28;20031;-29
2022/06/12 10:49:23;;;;;;;38.83;9.05;;;;;;;20.91;98.16;99657.06;5109927;28;20035;-32
2022/06/12 10:51:50;;;;;;;15.70;9.43;;;;;;;21.07;99.05;99679.28;5091872;28;20031;-31
2022/06/12 10:54:21;;;;;;;23.63;16.00;;;;;;;21.20;97.71;99673.06;5091038;28;20181;-33
2022/06/12 10:56:50;;;;;;;17.50;10.15;;;;;;;21.35;97.00;99663.84;5091529;28;20024;-30
2022/06/12 10:59:46;;;;;;;20.98;12.68;;;;;;;21.45;98.56;99676.44;5109565;28;20095;-36
2022/06/12 11:02:35;;;;;;;8.43;5.95;;;;;;;21.90;96.62;99676.63;5091045;28;20636;-35
2022/06/12 11:05:19;;;;;;;63.67;9.10;;;;;;;22.13;95.25;99668.53;5110175;28;20051;-33
2022/06/12 11:07:58;;;;;;;91.82;14.63;;;;;;;22.18;95.14;99669.22;5091414;28;20078;-41
2022/06/12 11:10:45;;;;;;;6.57;5.50;;;;;;;22.26;94.28;99662.28;5091306;28;20498;-33
2022/06/12 11:13:29;;;;;;;;;;;;;;;22.68;93.28;99668.38;5110027;28;20026;-33
2022/06/12 11:16:12;;;;;;;7.22;5.55;;;;;;;22.61;89.27;99670.72;5109375;28;19908;-30
2022/06/12 11:18:59;;;;;;;40.88;8.00;;;;;;;22.80;90.00;99671.34;5109680;28;20042;-29
2022/06/12 11:21:49;;;;;;;6.85;5.50;;;;;;;22.89;90.15;99668.66;5091325;28;20072;-35
2022/06/12 11:24:17;;;;;;;8.57;6.40;;;;;;;23.13;90.50;99668.34;5090958;28;20099;-33
2022/06/12 11:27:07;;;;;;;8.80;6.55;;;;;;;23.32;89.70;99665.41;5109666;28;20613;-32
2022/06/12 11:29:54;;;;;;;8.50;7.07;;;;;;;22.94;88.73;99665.81;5091004;28;20040;-30
2022/06/12 11:32:50;;;;;;;8.43;6.90;;;;;;;22.91;91.34;99655.56;5091109;28;20063;-29
2022/06/12 11:35:36;;;;;;;8.88;6.45;;;;;;;22.84;92.27;99650.59;5108973;28;20020;-30
2022/06/12 11:38:32;;;;;;;8.38;6.05;;;;;;;22.42;90.76;99649.97;5109446;28;20034;-32
2022/06/12 11:41:18;;;;;;;7.57;6.13;;;;;;;22.31;92.49;99642.34;5109192;28;20465;-31
2022/06/12 11:43:54;;;;;;;182.07;26.55;;;;;;;21.91;91.50;99651.09;5109062;28;20040;-31
2022/06/12 11:46:28;;;;;;;9.15;6.82;;;;;;;21.86;95.88;99648.47;5090866;28;20034;-31
2022/06/12 11:48:56;;;;;;;9.95;7.00;;;;;;;22.11;94.62;99657.16;5090773;28;20096;-30
2022/06/12 11:51:37;;;;;;;8.15;6.05;;;;;;;22.51;91.66;99646.50;5090062;28;20150;-34
2022/06/12 11:55:01;;;;;;;9.10;6.80;;;;;;;22.63;91.99;99652.19;5108758;28;20035;-32
2022/06/12 11:57:29;;;;;;;8.18;6.07;;;;;;;22.31;91.33;99635.00;4991846;28;20045;-33
2022/06/12 12:00:14;;;;;;;;;;;;;;;21.87;91.30;99636.50;5005821;28;20042;-32
2022/06/12 12:02:54;;;;;;;75.90;12.63;;;;;;;21.85;89.85;99638.72;5050266;28;19920;-31
2022/06/12 12:05:45;;;;;;;7.65;5.53;;;;;;;21.89;89.18;99634.31;5090304;28;20059;-31
2022/06/12 12:08:31;;;;;;;9.25;5.80;;;;;;;21.97;89.59;99640.94;5108667;28;20111;-31